createdAt,value
2019-02-04T00:01:11.938Z,20.60
2019-02-04T00:03:38.780Z,20.60
2019-02-04T00:06:05.622Z,20.60
2019-02-04T00:08:32.464Z,20.60
2019-02-04T00:10:59.458Z,20.60
2019-02-04T00:13:26.183Z,20.70
2019-02-04T00:15:52.993Z,20.70
2019-02-04T00:18:19.837Z,20.70
2019-02-04T00:20:46.674Z,20.70
2019-02-04T00:23:13.206Z,20.70
2019-02-04T00:25:40.049Z,20.80
2019-02-04T00:28:06.583Z,20.80
2019-02-04T00:30:33.424Z,20.80
2019-02-04T00:33:00.043Z,20.80
2019-02-04T00:35:27.107Z,20.80
2019-02-04T00:37:53.643Z,20.90
2019-02-04T00:40:20.185Z,20.90
2019-02-04T00:42:47.325Z,20.90
2019-02-04T00:45:14.177Z,20.90
2019-02-04T00:47:40.701Z,20.90
2019-02-04T00:50:07.543Z,20.90
2019-02-04T00:52:34.078Z,21.00
2019-02-04T00:55:00.923Z,21.00
2019-02-04T00:57:27.455Z,21.00
2019-02-04T00:59:54.295Z,21.00
2019-02-04T01:02:20.831Z,21.00
2019-02-04T01:04:47.672Z,21.00
2019-02-04T01:07:14.513Z,21.00
2019-02-04T01:09:41.063Z,21.00
2019-02-04T01:12:07.890Z,21.10
2019-02-04T01:14:34.730Z,21.10
2019-02-04T01:17:03.511Z,21.10
2019-02-04T01:19:29.632Z,21.10
2019-02-04T01:21:56.178Z,21.10
2019-02-04T01:24:23.019Z,21.10
2019-02-04T01:26:49.556Z,21.10
2019-02-04T01:29:16.395Z,21.10
2019-02-04T01:31:43.248Z,21.20
2019-02-04T01:34:09.777Z,21.20
2019-02-04T01:36:36.925Z,21.20
2019-02-04T01:39:03.455Z,21.20
2019-02-04T01:41:29.998Z,21.20
2019-02-04T01:43:56.640Z,21.20
2019-02-04T01:46:23.365Z,21.20
2019-02-04T01:48:49.902Z,21.20
2019-02-04T01:51:16.436Z,21.20
2019-02-04T01:53:43.586Z,21.20
2019-02-04T01:56:10.425Z,21.20
2019-02-04T01:58:36.961Z,21.30
2019-02-04T02:01:03.495Z,21.30
2019-02-04T02:03:30.037Z,21.30
2019-02-04T02:05:56.565Z,21.30
2019-02-04T02:08:23.097Z,21.30
2019-02-04T02:10:49.635Z,21.30
2019-02-04T02:13:16.166Z,21.30
2019-02-04T02:15:42.701Z,21.30
2019-02-04T02:18:09.237Z,21.30
2019-02-04T02:20:35.770Z,21.40
2019-02-04T02:23:02.305Z,21.30
2019-02-04T02:25:29.148Z,21.40
2019-02-04T02:27:55.679Z,21.40
2019-02-04T02:30:22.522Z,21.40
2019-02-04T02:32:49.366Z,21.40
2019-02-04T02:35:15.898Z,21.40
2019-02-04T02:37:42.435Z,21.40
2019-02-04T02:40:09.274Z,21.40
2019-02-04T02:42:35.809Z,21.50
2019-02-04T02:45:02.651Z,21.50
2019-02-04T02:47:38.088Z,21.50
2019-02-04T02:49:57.347Z,21.50
2019-02-04T02:52:24.097Z,21.50
2019-02-04T02:54:50.631Z,21.50
2019-02-04T02:57:17.478Z,21.50
2019-02-04T02:59:44.008Z,21.50
2019-02-04T03:02:10.541Z,21.50
2019-02-04T03:04:37.084Z,21.50
2019-02-04T03:07:04.226Z,21.60
2019-02-04T03:09:31.067Z,21.50
2019-02-04T03:11:57.603Z,21.60
2019-02-04T03:14:24.139Z,21.60
2019-02-04T03:16:50.707Z,21.60
2019-02-04T03:19:17.520Z,21.60
2019-02-04T03:21:44.353Z,21.60
2019-02-04T03:24:11.197Z,21.60
2019-02-04T03:26:37.731Z,21.60
2019-02-04T03:29:04.264Z,21.60
2019-02-04T03:31:30.801Z,21.60
2019-02-04T03:33:57.645Z,21.60
2019-02-04T03:36:24.175Z,21.70
2019-02-04T03:38:50.709Z,21.70
2019-02-04T03:41:17.551Z,21.70
2019-02-04T03:43:44.701Z,21.70
2019-02-04T03:46:11.543Z,21.70
2019-02-04T03:48:38.079Z,21.70
2019-02-04T03:51:04.917Z,21.70
2019-02-04T03:53:31.453Z,21.70
2019-02-04T03:55:57.987Z,21.70
2019-02-04T03:58:27.342Z,21.70
2019-02-04T04:00:55.050Z,21.70
2019-02-04T04:03:22.492Z,21.70
2019-02-04T04:05:50.485Z,21.70
2019-02-04T04:08:17.713Z,21.70
2019-02-04T04:10:46.093Z,21.80
2019-02-04T04:13:13.446Z,21.70
2019-02-04T04:15:41.692Z,21.80
2019-02-04T04:18:15.327Z,21.80
2019-02-04T04:20:37.953Z,21.80
2019-02-04T04:23:06.600Z,21.80
2019-02-04T04:25:34.466Z,21.80
2019-02-04T04:28:02.502Z,21.80
2019-02-04T04:30:29.804Z,21.80
2019-02-04T04:32:56.591Z,21.80
2019-02-04T04:35:24.041Z,21.80
2019-02-04T04:37:52.104Z,21.80
2019-02-04T04:40:20.274Z,21.80
2019-02-04T04:42:48.191Z,21.80
2019-02-04T04:45:15.803Z,21.80
2019-02-04T04:47:43.903Z,21.80
2019-02-04T04:50:11.942Z,21.80
2019-02-04T04:52:38.691Z,21.80
2019-02-04T04:55:05.226Z,21.90
2019-02-04T04:57:32.066Z,21.80
2019-02-04T04:59:58.908Z,21.80
2019-02-04T05:02:25.425Z,21.90
2019-02-04T05:04:52.288Z,21.80
2019-02-04T05:07:19.437Z,21.80
2019-02-04T05:09:45.974Z,21.80
2019-02-04T05:12:12.813Z,21.80
2019-02-04T05:14:39.343Z,21.80
2019-02-04T05:17:05.886Z,21.80
2019-02-04T05:19:32.414Z,21.90
2019-02-04T05:21:59.275Z,21.80
2019-02-04T05:24:26.711Z,21.80
2019-02-04T05:26:53.250Z,21.80
2019-02-04T05:29:19.785Z,21.80
2019-02-04T05:31:46.316Z,21.80
2019-02-04T05:34:12.856Z,21.80
2019-02-04T05:36:39.694Z,21.80
2019-02-04T05:39:06.227Z,21.80
2019-02-04T05:41:33.379Z,21.80
2019-02-04T05:43:59.908Z,21.80
2019-02-04T05:46:26.444Z,21.80
2019-02-04T05:48:53.287Z,21.80
2019-02-04T05:51:19.818Z,21.80
2019-02-04T05:53:46.330Z,21.80
2019-02-04T05:56:13.196Z,21.80
2019-02-04T05:58:39.730Z,21.80
2019-02-04T06:01:06.853Z,21.80
2019-02-04T06:03:33.412Z,21.80
2019-02-04T06:06:00.074Z,21.80
2019-02-04T06:08:26.788Z,21.80
2019-02-04T06:10:53.324Z,21.70
2019-02-04T06:13:19.861Z,21.80
2019-02-04T06:15:46.393Z,21.80
2019-02-04T06:18:12.930Z,21.80
2019-02-04T06:20:39.461Z,21.80
2019-02-04T06:23:05.996Z,21.80
2019-02-04T06:25:32.840Z,21.80
2019-02-04T06:27:59.371Z,21.80
2019-02-04T06:30:25.887Z,21.70
2019-02-04T06:32:52.441Z,21.80
2019-02-04T06:35:19.099Z,21.80
2019-02-04T06:37:46.855Z,21.80
2019-02-04T06:40:13.895Z,21.80
2019-02-04T06:42:40.731Z,21.80
2019-02-04T06:45:07.252Z,21.80
2019-02-04T06:47:33.798Z,21.80
2019-02-04T06:50:00.644Z,21.80
2019-02-04T06:52:27.175Z,21.80
2019-02-04T06:54:54.323Z,21.80
2019-02-04T06:57:21.157Z,21.80
2019-02-04T06:59:47.705Z,21.80
2019-02-04T07:02:14.630Z,21.80
2019-02-04T07:04:41.383Z,21.80
2019-02-04T07:07:07.922Z,21.80
2019-02-04T07:09:34.454Z,21.80
2019-02-04T07:12:00.986Z,21.80
2019-02-04T07:14:28.144Z,21.80
2019-02-04T07:16:54.976Z,21.80
2019-02-04T07:19:24.473Z,21.80
2019-02-04T07:21:49.583Z,21.80
2019-02-04T07:24:16.119Z,21.80
2019-02-04T07:26:42.654Z,21.80
2019-02-04T07:29:09.185Z,21.70
2019-02-04T07:31:35.795Z,21.70
2019-02-04T07:34:02.564Z,21.70
2019-02-04T07:36:29.096Z,21.70
2019-02-04T07:38:56.247Z,21.70
2019-02-04T07:41:23.088Z,21.70
2019-02-04T07:43:49.628Z,21.70
2019-02-04T07:46:16.464Z,21.70
2019-02-04T07:48:42.998Z,21.70
2019-02-04T07:51:09.941Z,21.70
2019-02-04T07:53:36.682Z,21.70
2019-02-04T07:56:03.218Z,21.70
2019-02-04T07:58:30.039Z,21.80
2019-02-04T08:00:56.596Z,21.70
2019-02-04T08:03:23.432Z,21.70
2019-02-04T08:05:49.976Z,21.70
2019-02-04T08:08:16.809Z,21.70
2019-02-04T08:10:44.273Z,21.70
2019-02-04T08:13:10.805Z,21.70
2019-02-04T08:15:37.640Z,21.70
2019-02-04T08:18:04.175Z,21.70
2019-02-04T08:20:30.897Z,21.70
2019-02-04T08:22:57.564Z,21.70
2019-02-04T08:25:25.996Z,21.70
2019-02-04T08:27:52.463Z,21.70
2019-02-04T08:30:18.999Z,21.70
2019-02-04T08:32:45.534Z,21.70
2019-02-04T08:35:12.067Z,21.70
2019-02-04T08:37:38.604Z,21.70
2019-02-04T08:40:05.443Z,21.70
2019-02-04T08:42:31.978Z,21.70
2019-02-04T08:44:58.820Z,21.70
2019-02-04T08:47:25.971Z,21.70
2019-02-04T08:49:58.309Z,21.70
2019-02-04T08:52:20.881Z,21.60
2019-02-04T08:54:47.721Z,21.70
2019-02-04T08:57:14.563Z,21.70
2019-02-04T08:59:41.074Z,21.60
2019-02-04T09:02:07.633Z,21.60
2019-02-04T09:04:36.994Z,21.60
2019-02-04T09:07:02.548Z,21.60
2019-02-04T09:09:29.084Z,21.60
2019-02-04T09:11:55.921Z,21.60
2019-02-04T09:14:22.542Z,21.60
2019-02-04T09:16:49.604Z,21.60
2019-02-04T09:19:16.138Z,21.60
2019-02-04T09:21:42.980Z,21.60
2019-02-04T09:24:09.514Z,21.60
2019-02-04T09:26:36.359Z,21.60
2019-02-04T09:29:03.231Z,21.60
2019-02-04T09:31:29.835Z,21.60
2019-02-04T09:33:56.574Z,21.60
2019-02-04T09:36:23.415Z,21.50
2019-02-04T09:38:50.225Z,21.60
2019-02-04T09:41:17.102Z,21.50
2019-02-04T09:43:43.821Z,21.50
2019-02-04T09:46:11.090Z,21.50
2019-02-04T09:48:37.934Z,21.50
2019-02-04T09:51:04.628Z,21.50
2019-02-04T09:53:31.935Z,21.50
2019-02-04T09:55:58.459Z,21.50
2019-02-04T09:58:24.991Z,21.50
2019-02-04T10:00:51.878Z,21.50
2019-02-04T10:03:18.761Z,21.50
2019-02-04T10:05:46.129Z,21.50
2019-02-04T10:08:12.666Z,21.40
2019-02-04T10:10:39.199Z,21.50
2019-02-04T10:13:06.043Z,21.50
2019-02-04T10:15:32.586Z,21.50
2019-02-04T10:17:59.446Z,21.50
2019-02-04T10:20:33.574Z,21.40
2019-02-04T10:22:54.355Z,21.40
2019-02-04T10:25:20.863Z,21.40
2019-02-04T10:27:47.406Z,21.40
2019-02-04T10:30:14.291Z,21.40
2019-02-04T10:32:41.120Z,21.50
2019-02-04T10:35:16.567Z,21.40
2019-02-04T10:37:35.867Z,21.50
2019-02-04T10:40:02.856Z,21.40
2019-02-04T10:42:29.676Z,21.40
2019-02-04T10:44:56.571Z,21.40
2019-02-04T10:47:23.364Z,21.40
2019-02-04T10:49:49.902Z,21.40
2019-02-04T10:52:16.450Z,21.40
2019-02-04T10:54:43.291Z,21.40
2019-02-04T10:57:10.113Z,21.40
2019-02-04T10:59:37.276Z,21.40
2019-02-04T11:02:04.138Z,21.40
2019-02-04T11:04:30.944Z,21.40
2019-02-04T11:06:57.805Z,21.40
2019-02-04T11:09:24.673Z,21.40
2019-02-04T11:11:51.489Z,21.40
2019-02-04T11:14:18.003Z,21.40
2019-02-04T11:16:44.873Z,21.40
2019-02-04T11:19:11.705Z,21.40
2019-02-04T11:21:38.246Z,21.40
2019-02-04T11:24:05.152Z,21.40
2019-02-04T11:26:31.918Z,21.40
2019-02-04T11:28:58.860Z,21.40
2019-02-04T11:31:25.935Z,21.30
2019-02-04T11:33:52.737Z,21.30
2019-02-04T11:36:19.609Z,21.40
2019-02-04T11:38:46.154Z,21.40
2019-02-04T11:41:13.035Z,21.30
2019-02-04T11:43:39.576Z,21.30
2019-02-04T11:46:06.333Z,21.40
2019-02-04T11:48:33.186Z,21.40
2019-02-04T11:51:09.409Z,21.30
2019-02-04T11:53:32.858Z,21.30
2019-02-04T11:55:56.467Z,21.30
2019-02-04T11:58:22.998Z,21.30
2019-02-04T12:00:49.532Z,21.30
2019-02-04T12:03:16.068Z,21.30
2019-02-04T12:05:42.609Z,21.30
2019-02-04T12:08:09.454Z,21.30
2019-02-04T12:10:35.977Z,21.30
2019-02-04T12:13:02.823Z,21.30
2019-02-04T12:15:29.362Z,21.30
2019-02-04T12:17:55.898Z,21.30
2019-02-04T12:20:22.729Z,21.30
2019-02-04T12:22:49.403Z,21.30
2019-02-04T12:25:16.413Z,21.30
2019-02-04T12:27:42.948Z,21.30
2019-02-04T12:30:10.096Z,21.30
2019-02-04T12:32:36.937Z,21.20
2019-02-04T12:35:03.474Z,21.20
2019-02-04T12:37:32.398Z,20.70
2019-02-04T12:39:59.922Z,19.90
2019-02-04T12:42:26.434Z,19.20
2019-02-04T12:44:53.296Z,18.80
2019-02-04T12:47:19.831Z,19.10
2019-02-04T12:49:46.982Z,19.40
2019-02-04T12:52:13.516Z,19.70
2019-02-04T12:54:40.382Z,19.90
2019-02-04T12:57:07.183Z,20.10
2019-02-04T12:59:33.732Z,20.20
2019-02-04T13:02:00.269Z,20.30
2019-02-04T13:04:26.806Z,20.40
2019-02-04T13:06:53.950Z,20.40
2019-02-04T13:09:20.791Z,20.00
2019-02-04T13:11:47.326Z,19.30
2019-02-04T13:14:13.860Z,18.70
2019-02-04T13:16:40.713Z,18.10
2019-02-04T13:19:07.625Z,17.70
2019-02-04T13:21:44.762Z,17.40
2019-02-04T13:24:02.764Z,17.20
2019-02-04T13:26:29.305Z,17.10
2019-02-04T13:28:56.143Z,17.60
2019-02-04T13:31:22.675Z,18.00
2019-02-04T13:33:49.405Z,18.40
2019-02-04T13:36:16.374Z,18.60
2019-02-04T13:38:43.199Z,18.90
2019-02-04T13:41:11.456Z,19.00
2019-02-04T13:43:38.162Z,19.20
2019-02-04T13:46:06.573Z,19.30
2019-02-04T13:48:33.672Z,19.40
2019-02-04T13:51:00.276Z,19.50
2019-02-04T13:53:27.209Z,19.60
2019-02-04T13:55:53.855Z,19.60
2019-02-04T13:58:21.855Z,19.70
2019-02-04T14:00:49.082Z,19.70
2019-02-04T14:03:17.881Z,19.80
2019-02-04T14:05:45.231Z,19.90
2019-02-04T14:08:12.227Z,19.90
2019-02-04T14:10:39.360Z,20.00
2019-02-04T14:13:06.051Z,20.00
2019-02-04T14:15:35.446Z,20.00
2019-02-04T14:18:00.959Z,20.10
2019-02-04T14:20:27.495Z,20.10
2019-02-04T14:22:54.337Z,20.20
2019-02-04T14:25:21.178Z,20.20
2019-02-04T14:27:47.712Z,20.20
2019-02-04T14:30:14.247Z,20.20
2019-02-04T14:32:40.786Z,20.20
2019-02-04T14:35:08.237Z,20.30
2019-02-04T14:37:34.775Z,20.30
2019-02-04T14:40:01.319Z,20.30
2019-02-04T14:42:27.841Z,20.30
2019-02-04T14:44:54.682Z,20.30
2019-02-04T14:47:21.533Z,20.30
2019-02-04T14:49:48.368Z,20.40
2019-02-04T14:52:21.501Z,20.40
2019-02-04T14:54:43.893Z,20.40
2019-02-04T14:57:10.428Z,20.40
2019-02-04T14:59:37.268Z,20.40
2019-02-04T15:02:03.806Z,20.40
2019-02-04T15:04:30.337Z,20.40
2019-02-04T15:06:57.197Z,20.40
2019-02-04T15:09:23.718Z,20.40
2019-02-04T15:11:50.554Z,20.50
2019-02-04T15:14:17.399Z,20.50
2019-02-04T15:16:43.931Z,20.50
2019-02-04T15:19:10.775Z,20.50
2019-02-04T15:21:37.616Z,20.60
2019-02-04T15:26:36.215Z,20.60
2019-02-04T15:29:03.058Z,20.70
2019-02-04T15:31:29.652Z,20.60
2019-02-04T15:33:56.432Z,20.70
2019-02-04T15:36:23.273Z,20.70
2019-02-04T15:38:50.124Z,20.70
2019-02-04T15:41:17.263Z,20.70
2019-02-04T15:43:43.797Z,20.70
2019-02-04T15:46:10.640Z,20.70
2019-02-04T15:48:37.482Z,20.70
2019-02-04T15:51:04.323Z,20.70
2019-02-04T15:53:31.163Z,20.70
2019-02-04T15:55:57.701Z,20.70
2019-02-04T15:58:24.849Z,20.70
2019-02-04T16:00:51.689Z,20.80
2019-02-04T16:03:18.531Z,20.80
2019-02-04T16:05:45.373Z,20.80
2019-02-04T16:08:11.908Z,20.80
2019-02-04T16:10:38.442Z,20.80
2019-02-04T16:13:05.283Z,20.80
2019-02-04T16:15:31.818Z,20.90
2019-02-04T16:17:58.967Z,20.80
2019-02-04T16:20:25.810Z,20.90
2019-02-04T16:22:58.582Z,20.90
2019-02-04T16:25:21.027Z,20.90
2019-02-04T16:27:47.870Z,20.90
2019-02-04T16:30:14.747Z,20.90
2019-02-04T16:32:41.555Z,21.00
2019-02-04T16:35:09.010Z,20.90
2019-02-04T16:37:35.895Z,20.90
2019-02-04T16:40:02.723Z,21.00
2019-02-04T16:42:29.245Z,21.00
2019-02-04T16:44:55.807Z,21.00
2019-02-04T16:47:22.306Z,21.00
2019-02-04T16:49:49.136Z,21.10
2019-02-04T16:52:15.672Z,21.10
2019-02-04T16:54:42.821Z,21.10
2019-02-04T16:57:09.355Z,21.10
2019-02-04T16:59:35.890Z,21.10
2019-02-04T17:02:02.502Z,21.20
2019-02-04T17:04:29.274Z,21.20
2019-02-04T17:06:56.591Z,21.20
2019-02-04T17:09:23.598Z,21.20
2019-02-04T17:11:50.407Z,21.20
2019-02-04T17:14:17.553Z,21.20
2019-02-04T17:16:44.088Z,21.30
2019-02-04T17:19:10.933Z,21.30
2019-02-04T17:21:37.467Z,21.30
2019-02-04T17:24:03.982Z,21.30
2019-02-04T17:26:30.844Z,21.30
2019-02-04T17:28:57.374Z,21.30
2019-02-04T17:31:24.216Z,21.30
2019-02-04T17:33:50.751Z,21.40
2019-02-04T17:36:17.292Z,21.40
2019-02-04T17:38:43.902Z,21.30
2019-02-04T17:41:10.662Z,21.30
2019-02-04T17:43:37.482Z,21.30
2019-02-04T17:46:04.018Z,21.30
2019-02-04T17:48:30.879Z,21.30
2019-02-04T17:50:57.721Z,21.30
2019-02-04T17:53:33.864Z,21.30
2019-02-04T17:55:52.632Z,21.30
2019-02-04T17:58:19.190Z,21.30
2019-02-04T18:00:46.014Z,21.30
2019-02-04T18:03:12.851Z,21.30
2019-02-04T18:05:39.915Z,21.30
2019-02-04T18:08:06.844Z,21.30
2019-02-04T18:10:33.406Z,21.30
2019-02-04T18:13:01.144Z,21.30
2019-02-04T18:15:27.979Z,21.30
2019-02-04T18:17:54.515Z,21.40
2019-02-04T18:20:21.052Z,21.30
2019-02-04T18:22:47.936Z,21.30
2019-02-04T18:25:14.739Z,21.40
2019-02-04T18:27:41.577Z,21.40
2019-02-04T18:30:08.108Z,21.30
2019-02-04T18:32:34.951Z,21.30
2019-02-04T18:35:01.487Z,21.30
2019-02-04T18:37:28.949Z,21.30
2019-02-04T18:39:55.788Z,21.40
2019-02-04T18:42:22.316Z,21.40
2019-02-04T18:44:49.472Z,21.40
2019-02-04T18:47:16.027Z,21.40
2019-02-04T18:49:42.847Z,21.40
2019-02-04T18:52:09.683Z,21.40
2019-02-04T18:54:37.156Z,21.40
2019-02-04T18:57:03.677Z,21.40
2019-02-04T18:59:30.825Z,21.40
2019-02-04T19:01:57.680Z,21.40
2019-02-04T19:04:24.507Z,21.40
2019-02-04T19:06:51.043Z,21.40
2019-02-04T19:09:17.576Z,21.40
2019-02-04T19:11:44.246Z,21.40
2019-02-04T19:14:10.952Z,21.40
2019-02-04T19:16:37.798Z,21.40
2019-02-04T19:19:04.944Z,21.40
2019-02-04T19:21:31.807Z,21.50
2019-02-04T19:24:09.071Z,21.50
2019-02-04T19:26:26.700Z,21.50
2019-02-04T19:28:53.847Z,21.50
2019-02-04T19:31:20.689Z,21.50
2019-02-04T19:33:47.221Z,21.50
2019-02-04T19:36:13.760Z,21.60
2019-02-04T19:38:40.906Z,21.50
2019-02-04T19:41:07.748Z,21.50
2019-02-04T19:43:34.285Z,21.50
2019-02-04T19:46:01.121Z,21.50
2019-02-04T19:48:27.657Z,21.50
2019-02-04T19:50:54.190Z,21.50
2019-02-04T19:53:22.783Z,21.50
2019-02-04T19:55:49.103Z,21.50
2019-02-04T19:58:15.949Z,21.50
2019-02-04T20:00:42.480Z,21.50
2019-02-04T20:03:09.322Z,21.50
2019-02-04T20:05:36.163Z,21.50
2019-02-04T20:08:02.698Z,21.50
2019-02-04T20:10:29.543Z,21.50
2019-02-04T20:12:56.436Z,21.50
2019-02-04T20:15:23.549Z,21.50
2019-02-04T20:17:50.377Z,21.50
2019-02-04T20:20:17.213Z,21.50
2019-02-04T20:22:43.748Z,21.50
2019-02-04T20:25:10.591Z,21.50
2019-02-04T20:27:37.123Z,21.50
2019-02-04T20:30:03.968Z,21.50
2019-02-04T20:32:30.501Z,21.50
2019-02-04T20:34:57.652Z,21.50
2019-02-04T20:37:24.182Z,21.60
2019-02-04T20:39:50.718Z,21.50
2019-02-04T20:42:17.559Z,21.50
2019-02-04T20:44:44.099Z,21.50
2019-02-04T20:47:10.628Z,21.50
2019-02-04T20:49:37.500Z,21.50
2019-02-04T20:52:04.311Z,21.70
2019-02-04T20:54:31.767Z,21.70
2019-02-04T20:56:58.308Z,21.60
2019-02-04T20:59:24.838Z,21.60
2019-02-04T21:01:51.372Z,21.60
2019-02-04T21:04:18.573Z,21.60
2019-02-04T21:06:55.705Z,21.60
2019-02-04T21:09:13.738Z,21.60
2019-02-04T21:11:40.636Z,21.60
2019-02-04T21:14:07.424Z,21.60
2019-02-04T21:16:33.957Z,21.60
2019-02-04T21:19:00.909Z,21.60
2019-02-04T21:21:27.958Z,21.70
2019-02-04T21:23:54.481Z,21.70
2019-02-04T21:26:21.734Z,21.70
2019-02-04T21:28:48.529Z,21.70
2019-02-04T21:31:15.625Z,21.70
2019-02-04T21:33:42.464Z,21.70
2019-02-04T21:36:08.997Z,21.70
2019-02-04T21:38:35.838Z,21.70
2019-02-04T21:41:02.382Z,21.70
2019-02-04T21:43:29.214Z,21.70
2019-02-04T21:45:55.766Z,21.70
2019-02-04T21:48:22.594Z,21.70
2019-02-04T21:50:49.742Z,21.70
2019-02-04T21:53:16.273Z,21.70
2019-02-04T21:55:43.116Z,21.70
2019-02-04T21:58:09.958Z,21.70
2019-02-04T22:00:37.134Z,21.70
2019-02-04T22:03:04.049Z,21.70
2019-02-04T22:05:30.790Z,21.70
2019-02-04T22:07:57.631Z,21.70
2019-02-04T22:10:24.479Z,21.70
2019-02-04T22:12:51.314Z,21.70
2019-02-04T22:15:17.848Z,21.60
2019-02-04T22:17:44.695Z,21.60
2019-02-04T22:20:11.882Z,21.60
2019-02-04T22:22:38.987Z,21.60
2019-02-04T22:25:05.524Z,21.60
2019-02-04T22:27:32.467Z,21.60
2019-02-04T22:29:58.990Z,21.50
2019-02-04T22:32:26.764Z,21.50
2019-02-04T22:34:54.118Z,21.40
2019-02-04T22:37:20.960Z,21.50
2019-02-04T22:39:47.494Z,21.40
2019-02-04T22:42:14.029Z,21.40
2019-02-04T22:44:40.871Z,21.40
2019-02-04T22:47:07.408Z,21.40
2019-02-04T22:49:34.249Z,21.40
2019-02-04T22:52:00.783Z,21.40
2019-02-04T22:54:27.318Z,21.40
2019-02-04T22:56:54.158Z,21.40
2019-02-04T22:59:20.692Z,21.40
2019-02-04T23:01:47.533Z,21.30
2019-02-04T23:04:14.070Z,21.30
2019-02-04T23:06:40.995Z,21.30
2019-02-04T23:09:07.794Z,21.30
2019-02-04T23:11:34.594Z,21.30
2019-02-04T23:14:01.127Z,21.30
2019-02-04T23:16:27.662Z,21.30
2019-02-04T23:18:54.210Z,21.30
2019-02-04T23:21:21.037Z,21.20
2019-02-04T23:23:47.887Z,21.30
2019-02-04T23:26:14.415Z,21.30
2019-02-04T23:28:41.260Z,21.20
2019-02-04T23:31:07.792Z,21.30
2019-02-04T23:33:34.631Z,21.30
2019-02-04T23:36:01.166Z,21.30
2019-02-04T23:38:27.720Z,21.20
2019-02-04T23:40:54.547Z,21.20
2019-02-04T23:43:21.693Z,21.20
2019-02-04T23:45:48.533Z,21.30
2019-02-04T23:48:15.066Z,21.30
2019-02-04T23:50:41.606Z,21.20
2019-02-04T23:53:08.117Z,21.20
2019-02-04T23:55:34.670Z,21.20
2019-02-04T23:58:01.819Z,21.20
